Albion, Arkansas
Current Conditions -  °F | °C
As of 11:56 PM on Sunday 23 Nov 2014 (Local Time) from KSRC Reporting Station
Scattered Clouds Scattered Clouds  
Wind Chill: 60°   Ceiling: Unl
Heat Index: 60°   Visibility: 10mi
Dew Point: 53°   Wind: 16mph
Humidity: 78%   Direction: 250°WSW
Pressure: 29.42"   Gusts: 31mph
Location:  35.2662°N, 91.8491°W
Report Text: KSRC 240556Z AUTO 25014G27KT 200V260 10SM FEW019 SCT065 SCT080 16/12 A2942 RMK AO2 PK WND 25027/0554 SLP968 T01560117 10167 20156 51015 TSNO
Loading
Personal Weather Stations






























Interactive Weather Map New forecast layout! Learn more

10-Day Weather Forecast

Advertisements
Track Severe Weather on mobile